»·PEaware :: SWA2558 KPHX-KSFO

SWA2558 :: KPHX-KSFO

FLIGHT INFORMATION

Flight Status: Arrived
Operator:
Southwest Airlines
More flights by this operator :: More flights under this callsign
Pilot: Cody B. (17747)
Aircraft: BOEING 737-800
(B738)
More flights by this aircraft type
Origin: KPHX Phoenix Sky Harbor Intl
United States
Destination: KSFO San Francisco Intl
United States
More flights between these airports :: More routes between these airports
Route: KEENS2 HRRBR CURIV J212 DECAS PMD AVE MAKRS SERFR SERFR3
File this flight plan on PilotEdge
Remarks:
Altitude:
(Current/Filed)
36,000ft
Speed:
(Current/Filed)
459kts
Departed: 09-Jul-18 02:19 PM
Arrived: 09-Jul-18 04:07 PM
Distance/Time
Traveled:
565nm/1:48
Distance/Time
To Go:
Arrived

Flight Plot

Page will automatically refresh every two minutes.

Flight plan parsing failed; only flown route is shown


Map Options




Map Legend


Flown Route
Filed Route
Departure Airport
Arrival Airport
Navaid (VOR, NDB)
Fix

Horizontal Profiles

Position Reports

Time Latitude Longitude Heading Altitude Ground
Speed
09-Jul-18 13:48 33.434293 -111.999892 90 1142ft 0kts
09-Jul-18 13:49 33.434293 -111.999892 90 1142ft 0kts
09-Jul-18 13:50 33.434293 -111.999892 90 1142ft 0kts
09-Jul-18 13:51 33.434293 -111.999892 90 1142ft 0kts
09-Jul-18 13:52 33.434293 -111.999892 90 1142ft 0kts
09-Jul-18 13:53 33.434293 -111.999892 90 1142ft 0kts
09-Jul-18 13:54 33.434293 -111.999892 90 1142ft 0kts
09-Jul-18 13:55 33.434293 -111.999892 90 1142ft 0kts
09-Jul-18 13:56 33.434293 -111.999892 90 1142ft 0kts
09-Jul-18 13:57 33.434293 -111.999892 90 1142ft 0kts
09-Jul-18 13:58 33.434293 -111.999892 90 1142ft 0kts
09-Jul-18 13:59 33.434293 -111.999892 90 1142ft 0kts
09-Jul-18 14:00 33.434293 -111.999892 90 1142ft 0kts
09-Jul-18 14:01 33.434293 -111.999892 90 1142ft 0kts
09-Jul-18 14:02 33.434293 -111.999892 90 1142ft 0kts
09-Jul-18 14:03 33.434293 -111.999892 90 1142ft 0kts
09-Jul-18 14:04 33.434293 -111.999893 90 1142ft 0kts
09-Jul-18 14:05 33.434364 -112.000371 167 1142ft 1kts
09-Jul-18 14:06 33.434493 -112.000370 179 1142ft 0kts
09-Jul-18 14:07 33.434493 -112.000370 179 1142ft 0kts
09-Jul-18 14:08 33.434307 -112.000368 179 1142ft 4kts
09-Jul-18 14:09 33.433442 -112.000363 179 1142ft 0kts
09-Jul-18 14:10 33.433322 -112.000364 180 1142ft 2kts
09-Jul-18 14:11 33.432198 -112.000945 252 1142ft 4kts
09-Jul-18 14:12 33.432144 -112.003179 270 1142ft 9kts
09-Jul-18 14:13 33.432146 -112.007788 269 1142ft 18kts
09-Jul-18 14:14 33.432146 -112.012866 270 1142ft 17kts
09-Jul-18 14:15 33.432149 -112.019154 270 1142ft 18kts
09-Jul-18 14:16 33.432155 -112.024679 269 1142ft 12kts
09-Jul-18 14:17 33.432037 -112.026856 210 1142ft 0kts
09-Jul-18 14:18 33.432031 -112.026859 205 1142ft 0kts
09-Jul-18 14:19 33.431124 -112.026731 107 1142ft 3kts
09-Jul-18 14:20 33.431065 -112.010001 89 1142ft 153kts
09-Jul-18 14:21 33.431578 -111.995203 18 1142ft 1kts
09-Jul-18 14:22 33.432098 -111.995735 278 1142ft 7kts
09-Jul-18 14:23 33.432135 -112.000464 269 1142ft 17kts
09-Jul-18 14:24 33.432132 -112.005868 270 1142ft 14kts
09-Jul-18 14:25 33.432139 -112.010489 269 1142ft 12kts
09-Jul-18 14:26 33.432149 -112.015121 270 1142ft 15kts
09-Jul-18 14:27 33.432150 -112.020875 269 1142ft 18kts
09-Jul-18 14:28 33.432176 -112.026289 269 1142ft 7kts
09-Jul-18 14:29 33.431998 -112.026906 199 1142ft 0kts
09-Jul-18 14:30 33.431222 -112.026927 141 1142ft 2kts
09-Jul-18 14:31 33.431073 -112.011774 89 1142ft 145kts
09-Jul-18 14:32 33.431705 -111.948824 88 3233ft 207kts
09-Jul-18 14:33 33.430795 -111.879381 113 6128ft 216kts
09-Jul-18 14:34 33.377632 -111.850831 199 8528ft 251kts
09-Jul-18 14:35 33.354811 -111.925899 276 11028ft 280kts
09-Jul-18 14:36 33.364257 -112.024501 280 13010ft 320kts
09-Jul-18 14:37 33.380722 -112.133993 282 14977ft 356kts
09-Jul-18 14:38 33.398514 -112.252721 282 17078ft 369kts
09-Jul-18 14:39 33.416655 -112.375293 282 18769ft 380kts
09-Jul-18 14:40 33.434989 -112.500480 283 20369ft 389kts
09-Jul-18 14:41 33.450807 -112.628750 274 21821ft 399kts
09-Jul-18 14:42 33.452772 -112.760219 273 23101ft 407kts
09-Jul-18 14:43 33.469601 -112.892418 286 24363ft 406kts
09-Jul-18 14:44 33.494431 -113.025144 286 25464ft 412kts
09-Jul-18 14:45 33.519484 -113.159993 286 26481ft 418kts
09-Jul-18 14:46 33.544664 -113.296388 285 27401ft 423kts
09-Jul-18 14:47 33.570119 -113.435272 285 28230ft 429kts
09-Jul-18 14:48 33.595808 -113.574994 286 29009ft 434kts
09-Jul-18 14:49 33.621734 -113.714281 285 29903ft 433kts
09-Jul-18 14:50 33.647820 -113.855158 285 30675ft 433kts
09-Jul-18 14:51 33.673651 -113.995419 285 31538ft 429kts
09-Jul-18 14:52 33.699213 -114.134513 285 32293ft 427kts
09-Jul-18 14:53 33.724460 -114.272889 285 32988ft 424kts
09-Jul-18 14:54 33.749552 -114.410714 285 33559ft 423kts
09-Jul-18 14:55 33.772807 -114.538309 285 34148ft 419kts
09-Jul-18 14:56 33.782587 -114.676762 275 34625ft 421kts
09-Jul-18 14:57 33.789392 -114.815520 275 35072ft 419kts
09-Jul-18 14:58 33.796694 -114.954827 275 35477ft 417kts
09-Jul-18 14:59 33.803952 -115.089284 275 35835ft 416kts
09-Jul-18 15:00 33.811778 -115.230710 275 35850ft 432kts
09-Jul-18 15:01 33.820017 -115.376744 275 35855ft 449kts
09-Jul-18 15:02 33.845946 -115.523846 286 35825ft 457kts
09-Jul-18 15:03 33.885377 -115.666993 293 35827ft 455kts
09-Jul-18 15:04 33.927349 -115.791696 293 35829ft 456kts
09-Jul-18 15:05 33.974433 -115.931800 293 35935ft 455kts
09-Jul-18 15:06 34.021674 -116.072547 293 36019ft 455kts
09-Jul-18 15:07 34.068897 -116.213557 293 35984ft 455kts
09-Jul-18 15:08 34.115248 -116.352067 292 35986ft 454kts
09-Jul-18 15:09 34.161986 -116.492365 292 35978ft 454kts
09-Jul-18 15:10 34.204473 -116.629136 277 36114ft 452kts
09-Jul-18 15:11 34.218927 -116.762861 290 36314ft 454kts
09-Jul-18 15:12 34.265166 -116.904967 290 36304ft 459kts
09-Jul-18 15:13 34.310854 -117.047066 290 36303ft 456kts
09-Jul-18 15:14 34.355851 -117.188544 289 36276ft 454kts
09-Jul-18 15:15 34.400532 -117.330134 289 36007ft 454kts
09-Jul-18 15:16 34.445321 -117.472589 288 36011ft 454kts
09-Jul-18 15:17 34.490267 -117.615289 289 36004ft 454kts
09-Jul-18 15:18 34.534516 -117.755705 288 36004ft 454kts
09-Jul-18 15:19 34.579246 -117.897672 288 35995ft 456kts
09-Jul-18 15:20 34.624334 -118.041477 288 35993ft 457kts
09-Jul-18 15:21 34.691167 -118.172260 311 35991ft 465kts
09-Jul-18 15:22 34.755918 -118.303160 298 35991ft 463kts
09-Jul-18 15:23 34.825976 -118.433684 300 35989ft 462kts
09-Jul-18 15:24 34.893062 -118.557768 300 36182ft 461kts
09-Jul-18 15:25 34.959818 -118.683279 299 36198ft 460kts
09-Jul-18 15:26 35.028768 -118.814116 299 36203ft 464kts
09-Jul-18 15:27 35.098215 -118.945646 299 36045ft 463kts
09-Jul-18 15:28 35.165515 -119.072845 300 35971ft 464kts
09-Jul-18 15:29 35.235475 -119.204846 300 35980ft 464kts
09-Jul-18 15:30 35.305078 -119.335931 300 35971ft 461kts
09-Jul-18 15:31 35.374823 -119.467053 300 35977ft 462kts
09-Jul-18 15:32 35.444838 -119.598500 300 35972ft 461kts
09-Jul-18 15:33 35.512674 -119.725535 300 35955ft 461kts
09-Jul-18 15:34 35.582874 -119.856842 300 35963ft 461kts
09-Jul-18 15:35 35.645104 -119.993042 279 35991ft 453kts
09-Jul-18 15:36 35.662466 -120.144954 273 35960ft 449kts
09-Jul-18 15:37 35.677671 -120.296977 273 35963ft 449kts
09-Jul-18 15:38 35.719763 -120.442705 292 35965ft 458kts
09-Jul-18 15:39 35.773790 -120.584005 292 35959ft 455kts
09-Jul-18 15:40 35.826388 -120.722493 291 35971ft 455kts
09-Jul-18 15:41 35.879636 -120.863313 291 35977ft 457kts
09-Jul-18 15:42 35.933179 -121.005151 291 35980ft 456kts
09-Jul-18 15:43 35.986744 -121.146696 291 35967ft 456kts
09-Jul-18 15:44 36.040101 -121.287621 292 35978ft 455kts
09-Jul-18 15:45 36.121624 -121.402820 324 33209ft 465kts
09-Jul-18 15:46 36.220619 -121.481786 326 30444ft 466kts
09-Jul-18 15:47 36.327549 -121.565899 325 27692ft 447kts
09-Jul-18 15:48 36.429164 -121.645965 325 25030ft 425kts
09-Jul-18 15:49 36.524141 -121.720939 325 22633ft 409kts
09-Jul-18 15:50 36.618408 -121.795563 325 20197ft 395kts
09-Jul-18 15:51 36.708697 -121.867286 325 17900ft 381kts
09-Jul-18 15:52 36.804860 -121.912299 345 15536ft 371kts
09-Jul-18 15:53 36.899288 -121.938604 345 13501ft 352kts
09-Jul-18 15:54 36.988824 -121.966808 340 11789ft 332kts
09-Jul-18 15:55 37.063075 -121.995634 339 10923ft 280kts
09-Jul-18 15:56 37.128511 -122.021281 339 10172ft 277kts
09-Jul-18 15:57 37.197034 -122.048155 340 9191ft 272kts
09-Jul-18 15:58 37.267653 -122.075863 339 8103ft 265kts
09-Jul-18 15:59 37.338060 -122.103639 340 6736ft 270kts
09-Jul-18 16:00 37.406728 -122.129076 345 5975ft 238kts
09-Jul-18 16:01 37.469736 -122.142192 345 4858ft 219kts
09-Jul-18 16:02 37.522760 -122.163384 330 4019ft 186kts
09-Jul-18 16:03 37.548388 -122.209801 296 2861ft 151kts
09-Jul-18 16:04 37.566596 -122.252652 295 1834ft 132kts
09-Jul-18 16:05 37.584410 -122.291981 296 1130ft 128kts
09-Jul-18 16:06 37.601026 -122.331974 293 508ft 130kts
09-Jul-18 16:07 37.616280 -122.369227 297 21ft 57kts
09-Jul-18 16:08 37.618938 -122.376640 274 21ft 18kts
09-Jul-18 16:09 37.618947 -122.378252 267 21ft 0kts
09-Jul-18 16:10 37.618022 -122.379509 174 21ft 10kts
09-Jul-18 16:11 37.615152 -122.380616 207 21ft 13kts
09-Jul-18 16:12 37.611658 -122.382918 207 21ft 12kts
09-Jul-18 16:13 37.611091 -122.384781 355 21ft 6kts
09-Jul-18 16:14 37.612543 -122.384682 5 21ft 1kts
09-Jul-18 16:15 37.612633 -122.384670 5 21ft 0kts
09-Jul-18 16:16 37.612633 -122.384670 5 21ft 0kts
09-Jul-18 16:17 37.612633 -122.384668 4 21ft 0kts
09-Jul-18 16:18 37.612633 -122.384668 4 21ft 0kts

Navigation Log

Ident Type
Flight plan parsing failed, navigation log unavailable